sensor_id;sensor_type;location;lat;lon;timestamp;P1;durP1;ratioP1;P2;durP2;ratioP2
15635;SDS011;7917;50.818;6.972;2022-12-11T00:00:36;49.58;;;20.83;;
15635;SDS011;7917;50.818;6.972;2022-12-11T00:05:51;48.58;;;19.42;;
15635;SDS011;7917;50.818;6.972;2022-12-11T00:08:18;57.20;;;19.35;;
15635;SDS011;7917;50.818;6.972;2022-12-11T00:10:46;52.05;;;19.85;;
15635;SDS011;7917;50.818;6.972;2022-12-11T00:13:15;48.70;;;20.20;;
15635;SDS011;7917;50.818;6.972;2022-12-11T00:15:42;62.42;;;22.70;;
15635;SDS011;7917;50.818;6.972;2022-12-11T00:18:12;60.25;;;23.10;;
15635;SDS011;7917;50.818;6.972;2022-12-11T00:20:46;61.42;;;23.20;;
15635;SDS011;7917;50.818;6.972;2022-12-11T00:23:13;55.13;;;23.80;;
15635;SDS011;7917;50.818;6.972;2022-12-11T00:25:41;65.80;;;24.65;;
15635;SDS011;7917;50.818;6.972;2022-12-11T00:28:09;66.57;;;23.90;;
15635;SDS011;7917;50.818;6.972;2022-12-11T00:30:37;65.90;;;25.75;;
15635;SDS011;7917;50.818;6.972;2022-12-11T00:33:07;66.47;;;23.23;;
15635;SDS011;7917;50.818;6.972;2022-12-11T00:35:36;61.80;;;25.08;;
15635;SDS011;7917;50.818;6.972;2022-12-11T00:38:05;65.97;;;23.58;;
15635;SDS011;7917;50.818;6.972;2022-12-11T00:40:43;62.05;;;23.38;;
15635;SDS011;7917;50.818;6.972;2022-12-11T00:43:11;58.22;;;21.63;;
15635;SDS011;7917;50.818;6.972;2022-12-11T00:45:39;68.53;;;23.75;;
15635;SDS011;7917;50.818;6.972;2022-12-11T00:48:12;60.55;;;21.73;;
15635;SDS011;7917;50.818;6.972;2022-12-11T00:50:39;61.38;;;21.92;;
15635;SDS011;7917;50.818;6.972;2022-12-11T00:53:08;58.13;;;22.45;;
15635;SDS011;7917;50.818;6.972;2022-12-11T00:55:37;60.75;;;22.77;;
15635;SDS011;7917;50.818;6.972;2022-12-11T00:58:05;56.42;;;23.38;;
15635;SDS011;7917;50.818;6.972;2022-12-11T01:00:33;61.78;;;23.17;;
15635;SDS011;7917;50.818;6.972;2022-12-11T01:03:01;59.35;;;23.10;;
15635;SDS011;7917;50.818;6.972;2022-12-11T01:05:29;66.80;;;22.73;;
15635;SDS011;7917;50.818;6.972;2022-12-11T01:07:56;59.10;;;23.38;;
15635;SDS011;7917;50.818;6.972;2022-12-11T01:10:26;67.00;;;23.88;;
15635;SDS011;7917;50.818;6.972;2022-12-11T01:12:53;65.53;;;24.73;;
15635;SDS011;7917;50.818;6.972;2022-12-11T01:15:22;66.60;;;22.88;;
15635;SDS011;7917;50.818;6.972;2022-12-11T01:17:52;60.83;;;23.58;;
15635;SDS011;7917;50.818;6.972;2022-12-11T01:20:20;67.25;;;23.77;;
15635;SDS011;7917;50.818;6.972;2022-12-11T01:22:50;61.42;;;24.70;;
15635;SDS011;7917;50.818;6.972;2022-12-11T01:25:19;64.82;;;24.52;;
15635;SDS011;7917;50.818;6.972;2022-12-11T01:27:49;63.78;;;24.85;;
15635;SDS011;7917;50.818;6.972;2022-12-11T01:30:17;66.97;;;24.10;;
15635;SDS011;7917;50.818;6.972;2022-12-11T01:32:46;61.78;;;24.15;;
15635;SDS011;7917;50.818;6.972;2022-12-11T01:35:14;59.85;;;23.52;;
15635;SDS011;7917;50.818;6.972;2022-12-11T01:37:41;59.70;;;23.00;;
15635;SDS011;7917;50.818;6.972;2022-12-11T01:40:10;58.33;;;22.85;;
15635;SDS011;7917;50.818;6.972;2022-12-11T01:42:39;61.80;;;23.35;;
15635;SDS011;7917;50.818;6.972;2022-12-11T01:45:22;56.13;;;22.13;;
15635;SDS011;7917;50.818;6.972;2022-12-11T01:48:00;57.65;;;23.30;;
15635;SDS011;7917;50.818;6.972;2022-12-11T01:50:33;58.53;;;22.60;;
15635;SDS011;7917;50.818;6.972;2022-12-11T01:53:04;62.38;;;22.83;;
15635;SDS011;7917;50.818;6.972;2022-12-11T01:55:35;62.10;;;24.70;;
15635;SDS011;7917;50.818;6.972;2022-12-11T01:58:04;53.00;;;23.02;;
15635;SDS011;7917;50.818;6.972;2022-12-11T02:00:34;66.32;;;24.38;;
15635;SDS011;7917;50.818;6.972;2022-12-11T02:03:02;67.97;;;26.50;;
15635;SDS011;7917;50.818;6.972;2022-12-11T02:05:30;60.42;;;24.70;;
15635;SDS011;7917;50.818;6.972;2022-12-11T02:07:57;56.97;;;24.13;;
15635;SDS011;7917;50.818;6.972;2022-12-11T02:10:34;56.60;;;24.25;;
15635;SDS011;7917;50.818;6.972;2022-12-11T02:13:17;60.15;;;23.75;;
15635;SDS011;7917;50.818;6.972;2022-12-11T02:15:57;58.83;;;23.63;;
15635;SDS011;7917;50.818;6.972;2022-12-11T02:18:32;59.25;;;24.17;;
15635;SDS011;7917;50.818;6.972;2022-12-11T02:21:06;54.88;;;22.48;;
15635;SDS011;7917;50.818;6.972;2022-12-11T02:23:50;52.25;;;23.90;;
15635;SDS011;7917;50.818;6.972;2022-12-11T02:26:33;51.78;;;22.15;;
15635;SDS011;7917;50.818;6.972;2022-12-11T02:29:23;58.05;;;22.92;;
15635;SDS011;7917;50.818;6.972;2022-12-11T02:31:58;50.70;;;20.30;;
15635;SDS011;7917;50.818;6.972;2022-12-11T02:34:29;52.35;;;22.00;;
15635;SDS011;7917;50.818;6.972;2022-12-11T02:37:01;48.88;;;21.10;;
15635;SDS011;7917;50.818;6.972;2022-12-11T02:39:32;54.38;;;20.35;;
15635;SDS011;7917;50.818;6.972;2022-12-11T02:42:04;51.10;;;21.50;;
15635;SDS011;7917;50.818;6.972;2022-12-11T02:44:34;46.83;;;20.73;;
15635;SDS011;7917;50.818;6.972;2022-12-11T02:47:05;47.47;;;19.05;;
15635;SDS011;7917;50.818;6.972;2022-12-11T02:49:34;46.58;;;19.92;;
15635;SDS011;7917;50.818;6.972;2022-12-11T02:52:02;52.47;;;20.73;;
15635;SDS011;7917;50.818;6.972;2022-12-11T02:54:32;52.55;;;20.58;;
15635;SDS011;7917;50.818;6.972;2022-12-11T02:57:05;49.97;;;21.08;;
15635;SDS011;7917;50.818;6.972;2022-12-11T02:59:39;51.50;;;21.05;;
15635;SDS011;7917;50.818;6.972;2022-12-11T03:02:09;52.60;;;21.40;;
15635;SDS011;7917;50.818;6.972;2022-12-11T03:04:38;48.42;;;20.08;;
15635;SDS011;7917;50.818;6.972;2022-12-11T03:07:08;53.92;;;20.80;;
15635;SDS011;7917;50.818;6.972;2022-12-11T03:09:39;51.75;;;21.25;;
15635;SDS011;7917;50.818;6.972;2022-12-11T03:12:11;54.85;;;22.00;;
15635;SDS011;7917;50.818;6.972;2022-12-11T03:14:42;52.75;;;22.08;;
15635;SDS011;7917;50.818;6.972;2022-12-11T03:17:11;53.58;;;21.13;;
15635;SDS011;7917;50.818;6.972;2022-12-11T03:19:44;58.60;;;22.77;;
15635;SDS011;7917;50.818;6.972;2022-12-11T03:22:18;49.50;;;21.00;;
15635;SDS011;7917;50.818;6.972;2022-12-11T03:24:49;57.95;;;23.77;;
15635;SDS011;7917;50.818;6.972;2022-12-11T03:27:21;56.35;;;21.40;;
15635;SDS011;7917;50.818;6.972;2022-12-11T03:29:56;55.38;;;22.52;;
15635;SDS011;7917;50.818;6.972;2022-12-11T03:32:30;50.00;;;20.35;;
15635;SDS011;7917;50.818;6.972;2022-12-11T03:35:04;53.83;;;22.40;;
15635;SDS011;7917;50.818;6.972;2022-12-11T03:37:36;58.33;;;21.98;;
15635;SDS011;7917;50.818;6.972;2022-12-11T03:40:08;53.42;;;21.73;;
15635;SDS011;7917;50.818;6.972;2022-12-11T03:42:40;54.83;;;22.15;;
15635;SDS011;7917;50.818;6.972;2022-12-11T03:45:15;53.00;;;21.73;;
15635;SDS011;7917;50.818;6.972;2022-12-11T03:47:44;57.72;;;22.08;;
15635;SDS011;7917;50.818;6.972;2022-12-11T03:50:12;55.08;;;21.67;;
15635;SDS011;7917;50.818;6.972;2022-12-11T03:52:44;54.03;;;21.35;;
15635;SDS011;7917;50.818;6.972;2022-12-11T03:55:13;56.38;;;22.77;;
15635;SDS011;7917;50.818;6.972;2022-12-11T03:57:44;51.72;;;21.38;;
15635;SDS011;7917;50.818;6.972;2022-12-11T04:03:35;53.63;;;21.70;;
15635;SDS011;7917;50.818;6.972;2022-12-11T04:06:03;46.92;;;20.95;;
15635;SDS011;7917;50.818;6.972;2022-12-11T04:08:30;52.80;;;20.50;;
15635;SDS011;7917;50.818;6.972;2022-12-11T04:10:59;50.10;;;21.25;;
15635;SDS011;7917;50.818;6.972;2022-12-11T04:13:45;51.55;;;21.05;;
15635;SDS011;7917;50.818;6.972;2022-12-11T04:16:33;49.10;;;20.35;;
15635;SDS011;7917;50.818;6.972;2022-12-11T04:19:01;51.38;;;20.92;;
15635;SDS011;7917;50.818;6.972;2022-12-11T04:21:46;56.17;;;21.92;;
15635;SDS011;7917;50.818;6.972;2022-12-11T04:24:36;53.55;;;21.80;;
15635;SDS011;7917;50.818;6.972;2022-12-11T04:27:04;59.05;;;21.90;;
15635;SDS011;7917;50.818;6.972;2022-12-11T04:29:32;55.83;;;21.02;;
15635;SDS011;7917;50.818;6.972;2022-12-11T04:31:59;46.50;;;19.88;;
15635;SDS011;7917;50.818;6.972;2022-12-11T04:34:28;48.40;;;21.02;;
15635;SDS011;7917;50.818;6.972;2022-12-11T04:36:56;44.30;;;20.05;;
15635;SDS011;7917;50.818;6.972;2022-12-11T04:39:23;49.05;;;20.40;;
15635;SDS011;7917;50.818;6.972;2022-12-11T04:41:50;50.67;;;19.92;;
15635;SDS011;7917;50.818;6.972;2022-12-11T04:44:17;44.50;;;20.33;;
15635;SDS011;7917;50.818;6.972;2022-12-11T04:46:45;45.15;;;20.80;;
15635;SDS011;7917;50.818;6.972;2022-12-11T04:49:13;51.45;;;21.65;;
15635;SDS011;7917;50.818;6.972;2022-12-11T04:51:42;54.47;;;20.88;;
15635;SDS011;7917;50.818;6.972;2022-12-11T04:54:09;51.72;;;20.80;;
15635;SDS011;7917;50.818;6.972;2022-12-11T04:56:37;52.42;;;20.42;;
15635;SDS011;7917;50.818;6.972;2022-12-11T04:59:04;48.47;;;18.85;;
15635;SDS011;7917;50.818;6.972;2022-12-11T05:01:31;51.05;;;21.17;;
15635;SDS011;7917;50.818;6.972;2022-12-11T05:03:59;55.50;;;21.52;;
15635;SDS011;7917;50.818;6.972;2022-12-11T05:06:27;59.33;;;21.45;;
15635;SDS011;7917;50.818;6.972;2022-12-11T05:08:55;53.28;;;21.05;;
15635;SDS011;7917;50.818;6.972;2022-12-11T05:11:24;50.92;;;22.20;;
15635;SDS011;7917;50.818;6.972;2022-12-11T05:13:51;57.50;;;22.98;;
15635;SDS011;7917;50.818;6.972;2022-12-11T05:16:18;54.13;;;22.50;;
15635;SDS011;7917;50.818;6.972;2022-12-11T05:18:49;53.25;;;20.23;;
15635;SDS011;7917;50.818;6.972;2022-12-11T05:21:17;58.47;;;24.05;;
15635;SDS011;7917;50.818;6.972;2022-12-11T05:23:44;61.85;;;23.00;;
15635;SDS011;7917;50.818;6.972;2022-12-11T05:26:14;59.15;;;23.38;;
15635;SDS011;7917;50.818;6.972;2022-12-11T05:28:43;59.70;;;25.15;;
15635;SDS011;7917;50.818;6.972;2022-12-11T05:31:12;58.10;;;22.00;;
15635;SDS011;7917;50.818;6.972;2022-12-11T05:33:42;57.75;;;24.25;;
15635;SDS011;7917;50.818;6.972;2022-12-11T05:36:12;59.47;;;21.27;;
15635;SDS011;7917;50.818;6.972;2022-12-11T05:38:42;56.80;;;21.27;;
15635;SDS011;7917;50.818;6.972;2022-12-11T05:41:11;62.15;;;23.05;;
15635;SDS011;7917;50.818;6.972;2022-12-11T05:43:41;53.65;;;23.50;;
15635;SDS011;7917;50.818;6.972;2022-12-11T05:46:10;57.17;;;24.15;;
15635;SDS011;7917;50.818;6.972;2022-12-11T05:48:41;55.92;;;23.20;;
15635;SDS011;7917;50.818;6.972;2022-12-11T05:51:10;49.63;;;21.25;;
15635;SDS011;7917;50.818;6.972;2022-12-11T05:53:39;52.63;;;21.42;;
15635;SDS011;7917;50.818;6.972;2022-12-11T05:56:09;52.33;;;21.65;;
15635;SDS011;7917;50.818;6.972;2022-12-11T05:58:40;53.88;;;20.95;;
15635;SDS011;7917;50.818;6.972;2022-12-11T06:01:08;53.60;;;22.38;;
15635;SDS011;7917;50.818;6.972;2022-12-11T06:03:38;46.08;;;19.63;;
15635;SDS011;7917;50.818;6.972;2022-12-11T06:06:06;49.97;;;20.13;;
15635;SDS011;7917;50.818;6.972;2022-12-11T06:08:33;45.72;;;19.13;;
15635;SDS011;7917;50.818;6.972;2022-12-11T06:11:02;44.38;;;19.73;;
15635;SDS011;7917;50.818;6.972;2022-12-11T06:13:32;45.25;;;19.65;;
15635;SDS011;7917;50.818;6.972;2022-12-11T06:16:03;47.05;;;20.08;;
15635;SDS011;7917;50.818;6.972;2022-12-11T06:18:34;45.70;;;19.95;;
15635;SDS011;7917;50.818;6.972;2022-12-11T06:21:09;43.10;;;18.85;;
15635;SDS011;7917;50.818;6.972;2022-12-11T06:23:41;49.00;;;19.65;;
15635;SDS011;7917;50.818;6.972;2022-12-11T06:26:10;46.72;;;20.75;;
15635;SDS011;7917;50.818;6.972;2022-12-11T06:28:38;42.92;;;18.77;;
15635;SDS011;7917;50.818;6.972;2022-12-11T06:31:07;45.67;;;19.17;;
15635;SDS011;7917;50.818;6.972;2022-12-11T06:33:35;48.50;;;20.00;;
15635;SDS011;7917;50.818;6.972;2022-12-11T06:36:03;47.75;;;19.25;;
15635;SDS011;7917;50.818;6.972;2022-12-11T06:38:35;48.65;;;19.17;;
15635;SDS011;7917;50.818;6.972;2022-12-11T06:41:03;42.50;;;18.67;;
15635;SDS011;7917;50.818;6.972;2022-12-11T06:43:32;47.13;;;20.63;;
15635;SDS011;7917;50.818;6.972;2022-12-11T06:46:02;49.90;;;20.58;;
15635;SDS011;7917;50.818;6.972;2022-12-11T06:48:32;49.72;;;21.10;;
15635;SDS011;7917;50.818;6.972;2022-12-11T06:51:03;46.25;;;20.08;;
15635;SDS011;7917;50.818;6.972;2022-12-11T06:53:32;49.70;;;20.45;;
15635;SDS011;7917;50.818;6.972;2022-12-11T06:56:01;51.65;;;20.75;;
15635;SDS011;7917;50.818;6.972;2022-12-11T06:58:29;43.92;;;19.38;;
15635;SDS011;7917;50.818;6.972;2022-12-11T07:00:56;45.80;;;19.40;;
15635;SDS011;7917;50.818;6.972;2022-12-11T07:03:25;47.25;;;20.40;;
15635;SDS011;7917;50.818;6.972;2022-12-11T07:05:54;54.78;;;22.02;;
15635;SDS011;7917;50.818;6.972;2022-12-11T07:08:26;45.78;;;19.23;;
15635;SDS011;7917;50.818;6.972;2022-12-11T07:10:54;53.03;;;20.40;;
15635;SDS011;7917;50.818;6.972;2022-12-11T07:13:28;46.70;;;19.58;;
15635;SDS011;7917;50.818;6.972;2022-12-11T07:15:56;53.70;;;20.63;;
15635;SDS011;7917;50.818;6.972;2022-12-11T07:18:24;45.03;;;19.60;;
15635;SDS011;7917;50.818;6.972;2022-12-11T07:20:52;43.63;;;20.60;;
15635;SDS011;7917;50.818;6.972;2022-12-11T07:23:22;42.88;;;19.42;;
15635;SDS011;7917;50.818;6.972;2022-12-11T07:25:50;41.40;;;19.02;;
15635;SDS011;7917;50.818;6.972;2022-12-11T07:28:18;45.92;;;20.25;;
15635;SDS011;7917;50.818;6.972;2022-12-11T07:30:46;45.33;;;18.58;;
15635;SDS011;7917;50.818;6.972;2022-12-11T07:33:14;46.53;;;19.13;;
15635;SDS011;7917;50.818;6.972;2022-12-11T07:35:42;40.63;;;18.75;;
15635;SDS011;7917;50.818;6.972;2022-12-11T07:38:11;41.53;;;18.70;;
15635;SDS011;7917;50.818;6.972;2022-12-11T07:40:38;41.15;;;18.35;;
15635;SDS011;7917;50.818;6.972;2022-12-11T07:43:05;40.42;;;18.30;;
15635;SDS011;7917;50.818;6.972;2022-12-11T07:45:33;43.95;;;18.95;;
15635;SDS011;7917;50.818;6.972;2022-12-11T07:48:00;42.38;;;18.02;;
15635;SDS011;7917;50.818;6.972;2022-12-11T07:50:28;40.45;;;18.90;;
15635;SDS011;7917;50.818;6.972;2022-12-11T07:52:55;48.13;;;19.27;;
15635;SDS011;7917;50.818;6.972;2022-12-11T07:55:25;44.42;;;19.48;;
15635;SDS011;7917;50.818;6.972;2022-12-11T07:57:52;43.22;;;19.25;;
15635;SDS011;7917;50.818;6.972;2022-12-11T08:00:19;42.13;;;18.50;;
15635;SDS011;7917;50.818;6.972;2022-12-11T08:02:48;45.83;;;20.52;;
15635;SDS011;7917;50.818;6.972;2022-12-11T08:05:15;41.15;;;18.95;;
15635;SDS011;7917;50.818;6.972;2022-12-11T08:07:42;41.22;;;20.42;;
15635;SDS011;7917;50.818;6.972;2022-12-11T08:10:11;41.42;;;19.02;;
15635;SDS011;7917;50.818;6.972;2022-12-11T08:12:42;35.97;;;17.60;;
15635;SDS011;7917;50.818;6.972;2022-12-11T08:15:10;36.67;;;18.30;;
15635;SDS011;7917;50.818;6.972;2022-12-11T08:17:38;42.83;;;18.88;;
15635;SDS011;7917;50.818;6.972;2022-12-11T08:20:06;45.20;;;19.10;;
15635;SDS011;7917;50.818;6.972;2022-12-11T08:22:33;39.40;;;18.25;;
15635;SDS011;7917;50.818;6.972;2022-12-11T08:25:01;38.90;;;16.98;;
15635;SDS011;7917;50.818;6.972;2022-12-11T08:27:29;41.05;;;18.85;;
15635;SDS011;7917;50.818;6.972;2022-12-11T08:29:58;38.28;;;16.33;;
15635;SDS011;7917;50.818;6.972;2022-12-11T08:32:25;35.63;;;16.65;;
15635;SDS011;7917;50.818;6.972;2022-12-11T08:34:53;39.33;;;17.63;;
15635;SDS011;7917;50.818;6.972;2022-12-11T08:37:20;45.00;;;18.42;;
15635;SDS011;7917;50.818;6.972;2022-12-11T08:39:47;48.80;;;20.70;;
15635;SDS011;7917;50.818;6.972;2022-12-11T08:42:14;48.47;;;19.75;;
15635;SDS011;7917;50.818;6.972;2022-12-11T08:44:42;47.33;;;19.13;;
15635;SDS011;7917;50.818;6.972;2022-12-11T08:47:12;51.42;;;19.98;;
15635;SDS011;7917;50.818;6.972;2022-12-11T08:49:40;52.20;;;19.90;;
15635;SDS011;7917;50.818;6.972;2022-12-11T08:52:07;54.28;;;19.90;;
15635;SDS011;7917;50.818;6.972;2022-12-11T08:54:35;50.13;;;18.90;;
15635;SDS011;7917;50.818;6.972;2022-12-11T08:57:04;53.60;;;20.40;;
15635;SDS011;7917;50.818;6.972;2022-12-11T08:59:31;54.20;;;22.15;;
15635;SDS011;7917;50.818;6.972;2022-12-11T09:01:59;59.10;;;23.35;;
15635;SDS011;7917;50.818;6.972;2022-12-11T09:04:28;60.60;;;25.15;;
15635;SDS011;7917;50.818;6.972;2022-12-11T09:06:56;71.40;;;26.60;;
15635;SDS011;7917;50.818;6.972;2022-12-11T09:09:23;68.85;;;27.55;;
15635;SDS011;7917;50.818;6.972;2022-12-11T09:11:52;77.30;;;29.02;;
15635;SDS011;7917;50.818;6.972;2022-12-11T09:14:19;72.95;;;29.17;;
15635;SDS011;7917;50.818;6.972;2022-12-11T09:16:46;75.75;;;30.42;;
15635;SDS011;7917;50.818;6.972;2022-12-11T09:19:15;72.55;;;29.42;;
15635;SDS011;7917;50.818;6.972;2022-12-11T09:21:43;67.50;;;28.55;;
15635;SDS011;7917;50.818;6.972;2022-12-11T09:24:11;72.07;;;28.83;;
15635;SDS011;7917;50.818;6.972;2022-12-11T09:26:40;68.15;;;25.38;;
15635;SDS011;7917;50.818;6.972;2022-12-11T09:29:08;64.13;;;26.38;;
15635;SDS011;7917;50.818;6.972;2022-12-11T09:31:36;73.15;;;30.77;;
15635;SDS011;7917;50.818;6.972;2022-12-11T09:34:05;67.30;;;26.95;;
15635;SDS011;7917;50.818;6.972;2022-12-11T09:36:34;67.00;;;27.98;;
15635;SDS011;7917;50.818;6.972;2022-12-11T09:39:05;65.72;;;28.08;;
15635;SDS011;7917;50.818;6.972;2022-12-11T09:41:36;65.85;;;27.35;;
15635;SDS011;7917;50.818;6.972;2022-12-11T09:44:17;64.35;;;26.58;;
15635;SDS011;7917;50.818;6.972;2022-12-11T09:46:57;60.60;;;24.50;;
15635;SDS011;7917;50.818;6.972;2022-12-11T09:49:31;60.88;;;25.85;;
15635;SDS011;7917;50.818;6.972;2022-12-11T09:52:09;58.33;;;26.58;;
15635;SDS011;7917;50.818;6.972;2022-12-11T09:54:42;67.25;;;25.27;;
15635;SDS011;7917;50.818;6.972;2022-12-11T09:57:18;68.63;;;27.05;;
15635;SDS011;7917;50.818;6.972;2022-12-11T09:59:59;58.20;;;24.95;;
15635;SDS011;7917;50.818;6.972;2022-12-11T10:02:43;60.95;;;27.42;;
15635;SDS011;7917;50.818;6.972;2022-12-11T10:05:29;62.45;;;25.17;;
15635;SDS011;7917;50.818;6.972;2022-12-11T10:08:05;59.13;;;26.40;;
15635;SDS011;7917;50.818;6.972;2022-12-11T10:10:42;62.25;;;27.55;;
15635;SDS011;7917;50.818;6.972;2022-12-11T10:13:15;58.13;;;25.88;;
15635;SDS011;7917;50.818;6.972;2022-12-11T10:15:56;60.92;;;26.95;;
15635;SDS011;7917;50.818;6.972;2022-12-11T10:18:30;57.95;;;26.40;;
15635;SDS011;7917;50.818;6.972;2022-12-11T10:21:00;60.83;;;26.23;;
15635;SDS011;7917;50.818;6.972;2022-12-11T10:23:29;64.22;;;26.17;;
15635;SDS011;7917;50.818;6.972;2022-12-11T10:26:07;63.42;;;26.38;;
15635;SDS011;7917;50.818;6.972;2022-12-11T10:28:38;62.80;;;27.20;;
15635;SDS011;7917;50.818;6.972;2022-12-11T10:31:08;68.40;;;28.55;;
15635;SDS011;7917;50.818;6.972;2022-12-11T10:33:50;69.78;;;27.85;;
15635;SDS011;7917;50.818;6.972;2022-12-11T10:36:24;54.65;;;26.27;;
15635;SDS011;7917;50.818;6.972;2022-12-11T10:38:54;64.80;;;26.67;;
15635;SDS011;7917;50.818;6.972;2022-12-11T10:41:35;59.47;;;27.00;;
15635;SDS011;7917;50.818;6.972;2022-12-11T10:44:18;57.05;;;25.95;;
15635;SDS011;7917;50.818;6.972;2022-12-11T10:46:48;59.00;;;25.48;;
15635;SDS011;7917;50.818;6.972;2022-12-11T10:49:29;51.47;;;24.98;;
15635;SDS011;7917;50.818;6.972;2022-12-11T10:51:58;63.50;;;27.13;;
15635;SDS011;7917;50.818;6.972;2022-12-11T10:54:30;56.75;;;25.23;;
15635;SDS011;7917;50.818;6.972;2022-12-11T10:57:05;55.70;;;26.30;;
15635;SDS011;7917;50.818;6.972;2022-12-11T10:59:35;62.65;;;26.58;;
15635;SDS011;7917;50.818;6.972;2022-12-11T11:02:06;59.45;;;26.58;;
15635;SDS011;7917;50.818;6.972;2022-12-11T11:04:48;60.42;;;26.88;;
15635;SDS011;7917;50.818;6.972;2022-12-11T11:07:19;54.10;;;26.63;;
15635;SDS011;7917;50.818;6.972;2022-12-11T11:10:03;59.58;;;26.70;;
15635;SDS011;7917;50.818;6.972;2022-12-11T11:12:42;48.47;;;24.05;;
15635;SDS011;7917;50.818;6.972;2022-12-11T11:15:12;59.80;;;26.30;;
15635;SDS011;7917;50.818;6.972;2022-12-11T11:17:42;54.55;;;26.30;;
15635;SDS011;7917;50.818;6.972;2022-12-11T11:20:16;60.50;;;24.63;;
15635;SDS011;7917;50.818;6.972;2022-12-11T11:22:45;55.90;;;24.88;;
15635;SDS011;7917;50.818;6.972;2022-12-11T11:28:17;49.90;;;24.70;;
15635;SDS011;7917;50.818;6.972;2022-12-11T11:31:00;44.58;;;21.05;;
15635;SDS011;7917;50.818;6.972;2022-12-11T11:33:30;43.97;;;21.83;;
15635;SDS011;7917;50.818;6.972;2022-12-11T11:36:00;41.25;;;20.33;;
15635;SDS011;7917;50.818;6.972;2022-12-11T11:38:29;41.05;;;20.05;;
15635;SDS011;7917;50.818;6.972;2022-12-11T11:41:04;35.00;;;19.50;;
15635;SDS011;7917;50.818;6.972;2022-12-11T11:43:43;44.13;;;21.13;;
15635;SDS011;7917;50.818;6.972;2022-12-11T11:46:13;46.05;;;21.38;;
15635;SDS011;7917;50.818;6.972;2022-12-11T11:48:49;42.60;;;22.02;;
15635;SDS011;7917;50.818;6.972;2022-12-11T11:51:24;39.50;;;20.38;;
15635;SDS011;7917;50.818;6.972;2022-12-11T11:53:59;45.92;;;22.63;;
15635;SDS011;7917;50.818;6.972;2022-12-11T11:56:32;40.78;;;19.25;;
15635;SDS011;7917;50.818;6.972;2022-12-11T11:59:10;38.28;;;20.40;;
15635;SDS011;7917;50.818;6.972;2022-12-11T12:01:45;39.75;;;20.52;;
15635;SDS011;7917;50.818;6.972;2022-12-11T12:04:12;40.38;;;20.85;;
15635;SDS011;7917;50.818;6.972;2022-12-11T12:06:43;38.28;;;19.30;;
15635;SDS011;7917;50.818;6.972;2022-12-11T12:09:27;34.45;;;17.45;;
15635;SDS011;7917;50.818;6.972;2022-12-11T12:12:08;40.63;;;19.17;;
15635;SDS011;7917;50.818;6.972;2022-12-11T12:17:44;46.30;;;23.88;;
15635;SDS011;7917;50.818;6.972;2022-12-11T12:20:18;45.35;;;22.05;;
15635;SDS011;7917;50.818;6.972;2022-12-11T12:22:58;46.22;;;22.20;;
15635;SDS011;7917;50.818;6.972;2022-12-11T12:25:33;43.70;;;23.33;;
15635;SDS011;7917;50.818;6.972;2022-12-11T12:28:11;46.50;;;22.77;;
15635;SDS011;7917;50.818;6.972;2022-12-11T12:30:51;39.80;;;20.73;;
15635;SDS011;7917;50.818;6.972;2022-12-11T12:33:30;42.03;;;21.50;;
15635;SDS011;7917;50.818;6.972;2022-12-11T12:36:10;41.08;;;20.83;;
15635;SDS011;7917;50.818;6.972;2022-12-11T12:38:46;37.25;;;19.45;;
15635;SDS011;7917;50.818;6.972;2022-12-11T12:41:20;37.80;;;19.70;;
15635;SDS011;7917;50.818;6.972;2022-12-11T12:43:59;37.08;;;18.52;;
15635;SDS011;7917;50.818;6.972;2022-12-11T12:46:52;33.90;;;19.25;;
15635;SDS011;7917;50.818;6.972;2022-12-11T12:52:12;27.23;;;14.77;;
15635;SDS011;7917;50.818;6.972;2022-12-11T12:54:43;32.55;;;16.80;;
15635;SDS011;7917;50.818;6.972;2022-12-11T12:57:34;34.08;;;16.88;;
15635;SDS011;7917;50.818;6.972;2022-12-11T13:00:04;27.90;;;15.18;;
15635;SDS011;7917;50.818;6.972;2022-12-11T13:02:34;23.33;;;13.80;;
15635;SDS011;7917;50.818;6.972;2022-12-11T13:05:05;25.92;;;13.98;;
15635;SDS011;7917;50.818;6.972;2022-12-11T13:07:47;22.48;;;12.27;;
15635;SDS011;7917;50.818;6.972;2022-12-11T13:10:23;28.67;;;14.57;;
15635;SDS011;7917;50.818;6.972;2022-12-11T13:12:54;23.60;;;13.50;;
15635;SDS011;7917;50.818;6.972;2022-12-11T13:15:23;21.10;;;12.52;;
15635;SDS011;7917;50.818;6.972;2022-12-11T13:17:53;21.63;;;12.20;;
15635;SDS011;7917;50.818;6.972;2022-12-11T13:20:22;24.38;;;12.90;;
15635;SDS011;7917;50.818;6.972;2022-12-11T13:22:55;21.95;;;12.18;;
15635;SDS011;7917;50.818;6.972;2022-12-11T13:25:44;24.48;;;12.10;;
15635;SDS011;7917;50.818;6.972;2022-12-11T13:28:28;23.23;;;12.15;;
15635;SDS011;7917;50.818;6.972;2022-12-11T13:30:59;20.40;;;11.20;;
15635;SDS011;7917;50.818;6.972;2022-12-11T13:33:31;25.38;;;12.77;;
15635;SDS011;7917;50.818;6.972;2022-12-11T13:36:12;21.58;;;12.50;;
15635;SDS011;7917;50.818;6.972;2022-12-11T13:38:54;25.27;;;13.55;;
15635;SDS011;7917;50.818;6.972;2022-12-11T13:41:26;28.13;;;14.02;;
15635;SDS011;7917;50.818;6.972;2022-12-11T13:43:58;25.05;;;13.73;;
15635;SDS011;7917;50.818;6.972;2022-12-11T13:46:27;24.23;;;13.13;;
15635;SDS011;7917;50.818;6.972;2022-12-11T13:49:00;21.60;;;12.60;;
15635;SDS011;7917;50.818;6.972;2022-12-11T13:51:30;23.73;;;12.73;;
15635;SDS011;7917;50.818;6.972;2022-12-11T13:54:05;27.85;;;14.77;;
15635;SDS011;7917;50.818;6.972;2022-12-11T13:56:52;28.88;;;15.57;;
15635;SDS011;7917;50.818;6.972;2022-12-11T13:59:22;30.65;;;15.77;;
15635;SDS011;7917;50.818;6.972;2022-12-11T14:01:54;29.50;;;15.57;;
15635;SDS011;7917;50.818;6.972;2022-12-11T14:04:28;31.45;;;15.80;;
15635;SDS011;7917;50.818;6.972;2022-12-11T14:06:57;25.85;;;14.68;;
15635;SDS011;7917;50.818;6.972;2022-12-11T14:09:24;24.95;;;14.63;;
15635;SDS011;7917;50.818;6.972;2022-12-11T14:11:53;28.98;;;15.70;;
15635;SDS011;7917;50.818;6.972;2022-12-11T14:14:26;31.00;;;15.45;;
15635;SDS011;7917;50.818;6.972;2022-12-11T14:17:01;28.25;;;15.70;;
15635;SDS011;7917;50.818;6.972;2022-12-11T14:19:31;32.70;;;16.65;;
15635;SDS011;7917;50.818;6.972;2022-12-11T14:21:59;26.85;;;15.90;;
15635;SDS011;7917;50.818;6.972;2022-12-11T14:24:28;33.75;;;18.38;;
15635;SDS011;7917;50.818;6.972;2022-12-11T14:26:57;35.50;;;18.85;;
15635;SDS011;7917;50.818;6.972;2022-12-11T14:29:26;34.58;;;18.90;;
15635;SDS011;7917;50.818;6.972;2022-12-11T14:31:55;34.10;;;18.80;;
15635;SDS011;7917;50.818;6.972;2022-12-11T14:34:28;37.95;;;20.08;;
15635;SDS011;7917;50.818;6.972;2022-12-11T14:37:01;40.13;;;19.48;;
15635;SDS011;7917;50.818;6.972;2022-12-11T14:39:31;42.33;;;19.73;;
15635;SDS011;7917;50.818;6.972;2022-12-11T14:42:03;39.58;;;20.92;;
15635;SDS011;7917;50.818;6.972;2022-12-11T14:44:44;44.28;;;20.92;;
15635;SDS011;7917;50.818;6.972;2022-12-11T14:47:16;40.60;;;21.80;;
15635;SDS011;7917;50.818;6.972;2022-12-11T14:49:50;46.17;;;22.85;;
15635;SDS011;7917;50.818;6.972;2022-12-11T14:52:24;43.20;;;20.33;;
15635;SDS011;7917;50.818;6.972;2022-12-11T14:54:55;42.50;;;20.95;;
15635;SDS011;7917;50.818;6.972;2022-12-11T14:57:32;43.22;;;21.80;;
15635;SDS011;7917;50.818;6.972;2022-12-11T15:00:01;43.22;;;21.15;;
15635;SDS011;7917;50.818;6.972;2022-12-11T15:02:30;37.45;;;20.52;;
15635;SDS011;7917;50.818;6.972;2022-12-11T15:05:09;33.67;;;18.23;;
15635;SDS011;7917;50.818;6.972;2022-12-11T15:07:40;34.22;;;18.60;;
15635;SDS011;7917;50.818;6.972;2022-12-11T15:12:56;34.33;;;19.17;;
15635;SDS011;7917;50.818;6.972;2022-12-11T15:15:26;33.42;;;17.73;;